TKJ4190 LTAC-LTFG
Flight info
| Callsign | TKJ4190 |
|---|---|
| Flight time | 0h 47m |
| Altitude | 27000 |
| Route | TELVO UM856 ERKUK UA28 MUT UT339 ELROP |
| Aircraft | B738/M-SDE2E3FGHIRWXY/LB1 |
Departure
| Time | 2026-05-04 20:14 |
|---|---|
| Airport | Esenboğa International Airport (LTAC) |
Arrival
| Time | 2026-05-04 21:02 |
|---|---|
| Airport | Gazipaşa-Alanya Airport (LTFG) |
| Time | Latitude | Longitude | Altitude | Speed | Heading |
|---|---|---|---|---|---|
| 2026-05-04 20:05 | 40.11512 | 32.98869 | 3117 ft | 2 kts | 69° |
| 2026-05-04 20:05 | 40.11505 | 32.98851 | 3116 ft | 2 kts | 52° |
| 2026-05-04 20:05 | 40.11498 | 32.98841 | 3116 ft | 0 kts | 39° |
| 2026-05-04 20:05 | 40.11492 | 32.98835 | 3116 ft | 0 kts | 37° |
| 2026-05-04 20:09 | 40.11492 | 32.98836 | 3116 ft | 1 kts | 37° |
| 2026-05-04 20:09 | 40.11519 | 32.98862 | 3116 ft | 6 kts | 39° |
| 2026-05-04 20:09 | 40.11567 | 32.98917 | 3118 ft | 10 kts | 45° |
| 2026-05-04 20:09 | 40.11615 | 32.98949 | 3118 ft | 0 kts | 346° |
| 2026-05-04 20:10 | 40.11618 | 32.98946 | 3118 ft | 2 kts | 330° |
| 2026-05-04 20:10 | 40.11634 | 32.98925 | 3118 ft | 4 kts | 311° |
| 2026-05-04 20:10 | 40.11658 | 32.98887 | 3117 ft | 8 kts | 308° |
| 2026-05-04 20:10 | 40.11696 | 32.98821 | 3116 ft | 10 kts | 306° |
| 2026-05-04 20:11 | 40.11745 | 32.98733 | 3114 ft | 12 kts | 306° |
| 2026-05-04 20:11 | 40.11799 | 32.98636 | 3112 ft | 9 kts | 305° |
| 2026-05-04 20:11 | 40.11830 | 32.98581 | 3111 ft | 4 kts | 306° |
| 2026-05-04 20:11 | 40.11850 | 32.98546 | 3110 ft | 5 kts | 306° |
| 2026-05-04 20:12 | 40.11885 | 32.98493 | 3109 ft | 8 kts | 334° |
| 2026-05-04 20:12 | 40.11933 | 32.98513 | 3110 ft | 6 kts | 37° |
| 2026-05-04 20:12 | 40.11935 | 32.98515 | 3110 ft | 0 kts | 37° |
| 2026-05-04 20:13 | 40.11952 | 32.98532 | 3110 ft | 20 kts | 37° |
| 2026-05-04 20:14 | 40.12274 | 32.98839 | 3113 ft | 91 kts | 36° |
| 2026-05-04 20:14 | 40.12964 | 32.99496 | 3117 ft | 151 kts | 37° |
| 2026-05-04 20:14 | 40.13935 | 33.00401 | 3327 ft | 182 kts | 34° |
| 2026-05-04 20:14 | 40.14874 | 33.01313 | 4262 ft | 169 kts | 37° |
| 2026-05-04 20:15 | 40.15818 | 33.02335 | 4791 ft | 180 kts | 38° |
| 2026-05-04 20:15 | 40.16782 | 33.03388 | 5214 ft | 189 kts | 38° |
| 2026-05-04 20:15 | 40.17839 | 33.04515 | 5598 ft | 201 kts | 37° |
| 2026-05-04 20:15 | 40.18969 | 33.05721 | 5935 ft | 218 kts | 40° |
| 2026-05-04 20:16 | 40.19962 | 33.07276 | 6371 ft | 233 kts | 59° |
| 2026-05-04 20:16 | 40.20418 | 33.09373 | 6818 ft | 250 kts | 85° |
| 2026-05-04 20:16 | 40.20179 | 33.11668 | 7258 ft | 267 kts | 106° |
| 2026-05-04 20:16 | 40.19270 | 33.13826 | 7743 ft | 279 kts | 125° |
| 2026-05-04 20:17 | 40.18040 | 33.15815 | 8463 ft | 281 kts | 128° |
| 2026-05-04 20:17 | 40.16798 | 33.17737 | 9188 ft | 282 kts | 128° |
| 2026-05-04 20:17 | 40.15547 | 33.19721 | 9914 ft | 283 kts | 127° |
| 2026-05-04 20:17 | 40.14310 | 33.21737 | 10413 ft | 293 kts | 126° |
| 2026-05-04 20:18 | 40.13019 | 33.23872 | 10773 ft | 308 kts | 126° |
| 2026-05-04 20:18 | 40.11671 | 33.26111 | 11118 ft | 322 kts | 126° |
| 2026-05-04 20:18 | 40.10252 | 33.28462 | 11455 ft | 337 kts | 126° |
| 2026-05-04 20:18 | 40.08754 | 33.30942 | 11789 ft | 352 kts | 126° |
| 2026-05-04 20:19 | 40.07227 | 33.33453 | 12365 ft | 358 kts | 127° |
| 2026-05-04 20:19 | 40.05533 | 33.35834 | 12826 ft | 364 kts | 136° |
| 2026-05-04 20:19 | 40.03412 | 33.37631 | 12889 ft | 368 kts | 154° |
| 2026-05-04 20:19 | 40.00917 | 33.38450 | 12892 ft | 372 kts | 173° |
| 2026-05-04 20:20 | 39.98282 | 33.38295 | 13367 ft | 382 kts | 187° |
| 2026-05-04 20:20 | 39.95699 | 33.37529 | 14167 ft | 384 kts | 196° |
| 2026-05-04 20:20 | 39.93260 | 33.36086 | 14906 ft | 388 kts | 207° |
| 2026-05-04 20:20 | 39.90955 | 33.34231 | 15605 ft | 393 kts | 212° |
| 2026-05-04 20:21 | 39.88696 | 33.32222 | 16326 ft | 395 kts | 213° |
| 2026-05-04 20:21 | 39.86431 | 33.30175 | 16998 ft | 399 kts | 213° |
| 2026-05-04 20:21 | 39.81838 | 33.26129 | 18311 ft | 405 kts | 212° |
| 2026-05-04 20:22 | 39.79475 | 33.24104 | 18936 ft | 409 kts | 211° |
| 2026-05-04 20:22 | 39.77085 | 33.22083 | 19618 ft | 411 kts | 211° |
| 2026-05-04 20:22 | 39.74664 | 33.20051 | 20256 ft | 414 kts | 210° |
| 2026-05-04 20:22 | 39.72254 | 33.18040 | 20836 ft | 418 kts | 210° |
| 2026-05-04 20:23 | 39.69778 | 33.15981 | 21435 ft | 421 kts | 210° |
| 2026-05-04 20:23 | 39.67321 | 33.13940 | 22056 ft | 424 kts | 210° |
| 2026-05-04 20:23 | 39.64842 | 33.11881 | 22617 ft | 427 kts | 210° |
| 2026-05-04 20:23 | 39.62328 | 33.09794 | 23140 ft | 431 kts | 210° |
| 2026-05-04 20:24 | 39.59809 | 33.07705 | 23713 ft | 433 kts | 210° |
| 2026-05-04 20:24 | 39.57250 | 33.05584 | 24176 ft | 438 kts | 210° |
| 2026-05-04 20:24 | 39.54667 | 33.03462 | 24616 ft | 441 kts | 210° |
| 2026-05-04 20:24 | 39.52011 | 33.01487 | 25031 ft | 444 kts | 206° |
| 2026-05-04 20:25 | 39.49259 | 32.99647 | 25395 ft | 448 kts | 205° |
| 2026-05-04 20:25 | 39.46471 | 32.97886 | 25736 ft | 453 kts | 204° |
| 2026-05-04 20:25 | 39.43618 | 32.96120 | 26159 ft | 453 kts | 205° |
| 2026-05-04 20:25 | 39.40764 | 32.94438 | 26615 ft | 453 kts | 201° |
| 2026-05-04 20:26 | 39.37717 | 32.93227 | 26849 ft | 455 kts | 191° |
| 2026-05-04 20:26 | 39.34578 | 32.92748 | 26855 ft | 454 kts | 180° |
| 2026-05-04 20:26 | 39.31441 | 32.92854 | 26904 ft | 452 kts | 175° |
| 2026-05-04 20:26 | 39.28326 | 32.93177 | 26905 ft | 452 kts | 173° |
| 2026-05-04 20:27 | 39.25204 | 32.93597 | 26900 ft | 450 kts | 172° |
| 2026-05-04 20:27 | 39.22084 | 32.94058 | 26887 ft | 450 kts | 172° |
| 2026-05-04 20:27 | 39.19001 | 32.94530 | 26864 ft | 449 kts | 172° |
| 2026-05-04 20:27 | 39.15894 | 32.95022 | 26889 ft | 448 kts | 172° |
| 2026-05-04 20:28 | 39.12793 | 32.95517 | 26897 ft | 450 kts | 172° |
| 2026-05-04 20:28 | 39.09685 | 32.96009 | 26877 ft | 450 kts | 172° |
| 2026-05-04 20:28 | 39.06573 | 32.96495 | 26900 ft | 449 kts | 172° |
| 2026-05-04 20:28 | 39.03471 | 32.96973 | 26910 ft | 450 kts | 172° |
| 2026-05-04 20:29 | 39.00379 | 32.97445 | 26870 ft | 450 kts | 173° |
| 2026-05-04 20:29 | 38.97290 | 32.97912 | 26887 ft | 448 kts | 173° |
| 2026-05-04 20:29 | 38.94147 | 32.98384 | 26909 ft | 451 kts | 173° |
| 2026-05-04 20:29 | 38.91045 | 32.98848 | 26904 ft | 451 kts | 173° |
| 2026-05-04 20:30 | 38.87926 | 32.99313 | 26891 ft | 450 kts | 173° |
| 2026-05-04 20:30 | 38.84805 | 32.99778 | 26924 ft | 451 kts | 173° |
| 2026-05-04 20:30 | 38.81691 | 33.00240 | 26907 ft | 452 kts | 173° |
| 2026-05-04 20:30 | 38.78566 | 33.00703 | 26894 ft | 449 kts | 173° |
| 2026-05-04 20:31 | 38.75479 | 33.01160 | 26906 ft | 448 kts | 173° |
| 2026-05-04 20:31 | 38.72378 | 33.01620 | 26916 ft | 450 kts | 173° |
| 2026-05-04 20:31 | 38.69268 | 33.02080 | 26923 ft | 451 kts | 173° |
| 2026-05-04 20:31 | 38.66154 | 33.02540 | 26923 ft | 451 kts | 173° |
| 2026-05-04 20:32 | 38.63058 | 33.02998 | 26923 ft | 452 kts | 173° |
| 2026-05-04 20:32 | 38.59917 | 33.03462 | 26921 ft | 451 kts | 173° |
| 2026-05-04 20:32 | 38.56818 | 33.03919 | 26938 ft | 453 kts | 174° |
| 2026-05-04 20:32 | 38.53666 | 33.04383 | 26928 ft | 453 kts | 174° |
| 2026-05-04 20:33 | 38.50569 | 33.04839 | 26929 ft | 452 kts | 174° |
| 2026-05-04 20:33 | 38.47418 | 33.05303 | 26926 ft | 452 kts | 174° |
| 2026-05-04 20:33 | 38.44263 | 33.05766 | 26929 ft | 452 kts | 174° |
| 2026-05-04 20:33 | 38.41175 | 33.06219 | 26942 ft | 451 kts | 174° |
| 2026-05-04 20:34 | 38.38049 | 33.06678 | 26993 ft | 451 kts | 174° |
| 2026-05-04 20:34 | 38.34931 | 33.07134 | 27004 ft | 451 kts | 174° |
| 2026-05-04 20:34 | 38.31799 | 33.07593 | 26971 ft | 451 kts | 174° |
| 2026-05-04 20:34 | 38.28718 | 33.08043 | 26936 ft | 449 kts | 174° |
| 2026-05-04 20:35 | 38.25629 | 33.08494 | 26929 ft | 450 kts | 174° |
| 2026-05-04 20:35 | 38.22483 | 33.08953 | 26928 ft | 450 kts | 174° |
| 2026-05-04 20:35 | 38.19408 | 33.09402 | 26925 ft | 449 kts | 175° |
| 2026-05-04 20:35 | 38.16281 | 33.09857 | 26927 ft | 449 kts | 175° |
| 2026-05-04 20:36 | 38.13200 | 33.10305 | 26927 ft | 449 kts | 175° |
| 2026-05-04 20:36 | 38.10078 | 33.10758 | 26926 ft | 449 kts | 175° |
| 2026-05-04 20:36 | 38.06967 | 33.11211 | 26927 ft | 448 kts | 175° |
| 2026-05-04 20:36 | 38.03877 | 33.11661 | 26927 ft | 448 kts | 175° |
| 2026-05-04 20:37 | 38.00781 | 33.12112 | 26924 ft | 448 kts | 175° |
| 2026-05-04 20:37 | 37.97706 | 33.12570 | 26934 ft | 448 kts | 175° |
| 2026-05-04 20:37 | 37.94601 | 33.13039 | 26928 ft | 448 kts | 175° |
| 2026-05-04 20:37 | 37.91537 | 33.13504 | 26942 ft | 447 kts | 175° |
| 2026-05-04 20:38 | 37.88405 | 33.13980 | 26949 ft | 447 kts | 175° |
| 2026-05-04 20:38 | 37.85349 | 33.14444 | 26913 ft | 448 kts | 175° |
| 2026-05-04 20:38 | 37.82232 | 33.14916 | 26937 ft | 449 kts | 175° |
| 2026-05-04 20:38 | 37.79156 | 33.15380 | 26953 ft | 451 kts | 175° |
| 2026-05-04 20:39 | 37.76039 | 33.15848 | 26924 ft | 450 kts | 175° |
| 2026-05-04 20:39 | 37.72906 | 33.16320 | 26922 ft | 450 kts | 175° |
| 2026-05-04 20:39 | 37.69810 | 33.16785 | 26904 ft | 452 kts | 175° |
| 2026-05-04 20:39 | 37.66700 | 33.17252 | 26914 ft | 452 kts | 176° |
| 2026-05-04 20:40 | 37.63576 | 33.17720 | 26920 ft | 453 kts | 176° |
| 2026-05-04 20:40 | 37.60416 | 33.18192 | 26930 ft | 453 kts | 176° |
| 2026-05-04 20:40 | 37.57325 | 33.18654 | 26949 ft | 453 kts | 176° |
| 2026-05-04 20:40 | 37.54183 | 33.19125 | 26948 ft | 452 kts | 176° |
| 2026-05-04 20:41 | 37.51054 | 33.19593 | 26949 ft | 451 kts | 176° |
| 2026-05-04 20:41 | 37.47955 | 33.20056 | 26925 ft | 451 kts | 176° |
| 2026-05-04 20:41 | 37.44819 | 33.20524 | 26929 ft | 453 kts | 176° |
| 2026-05-04 20:41 | 37.41705 | 33.20987 | 26946 ft | 454 kts | 176° |
| 2026-05-04 20:42 | 37.38570 | 33.21284 | 26944 ft | 450 kts | 185° |
| 2026-05-04 20:42 | 37.35540 | 33.20661 | 26952 ft | 439 kts | 201° |
| 2026-05-04 20:42 | 37.32730 | 33.19197 | 26956 ft | 435 kts | 211° |
| 2026-05-04 20:42 | 37.30082 | 33.17364 | 26952 ft | 434 kts | 214° |
| 2026-05-04 20:43 | 37.27486 | 33.15415 | 26950 ft | 433 kts | 216° |
| 2026-05-04 20:43 | 37.24913 | 33.13483 | 26952 ft | 432 kts | 215° |
| 2026-05-04 20:43 | 37.22328 | 33.11591 | 26953 ft | 432 kts | 214° |
| 2026-05-04 20:43 | 37.19715 | 33.09739 | 26951 ft | 432 kts | 214° |
| 2026-05-04 20:44 | 37.17059 | 33.07909 | 26955 ft | 434 kts | 213° |
| 2026-05-04 20:44 | 37.14426 | 33.06137 | 26945 ft | 436 kts | 213° |
| 2026-05-04 20:44 | 37.11718 | 33.04346 | 26937 ft | 434 kts | 213° |
| 2026-05-04 20:44 | 37.09069 | 33.02619 | 26930 ft | 429 kts | 213° |
| 2026-05-04 20:45 | 37.06433 | 33.00919 | 26864 ft | 418 kts | 213° |
| 2026-05-04 20:45 | 37.03889 | 32.99287 | 26664 ft | 408 kts | 213° |
| 2026-05-04 20:45 | 37.01358 | 32.97663 | 26301 ft | 411 kts | 213° |
| 2026-05-04 20:45 | 36.98816 | 32.96025 | 25782 ft | 416 kts | 213° |
| 2026-05-04 20:46 | 36.96236 | 32.94363 | 25195 ft | 415 kts | 213° |
| 2026-05-04 20:46 | 36.93680 | 32.92722 | 24580 ft | 414 kts | 213° |
| 2026-05-04 20:46 | 36.91128 | 32.91086 | 23979 ft | 413 kts | 213° |
| 2026-05-04 20:46 | 36.88596 | 32.89458 | 23356 ft | 412 kts | 212° |
| 2026-05-04 20:47 | 36.86051 | 32.87823 | 22720 ft | 409 kts | 212° |
| 2026-05-04 20:47 | 36.83550 | 32.86222 | 22120 ft | 407 kts | 212° |
| 2026-05-04 20:47 | 36.81020 | 32.84605 | 21515 ft | 404 kts | 212° |
| 2026-05-04 20:47 | 36.78560 | 32.83033 | 20932 ft | 401 kts | 212° |
| 2026-05-04 20:48 | 36.76060 | 32.81436 | 20319 ft | 399 kts | 212° |
| 2026-05-04 20:48 | 36.73606 | 32.79870 | 19712 ft | 396 kts | 212° |
| 2026-05-04 20:48 | 36.71185 | 32.78326 | 19130 ft | 394 kts | 212° |
| 2026-05-04 20:48 | 36.68735 | 32.76766 | 18550 ft | 391 kts | 211° |
| 2026-05-04 20:49 | 36.66345 | 32.75245 | 17980 ft | 388 kts | 211° |
| 2026-05-04 20:49 | 36.63936 | 32.73712 | 17394 ft | 386 kts | 211° |
| 2026-05-04 20:49 | 36.61570 | 32.72208 | 16799 ft | 384 kts | 211° |
| 2026-05-04 20:49 | 36.59202 | 32.70704 | 16188 ft | 381 kts | 211° |
| 2026-05-04 20:50 | 36.56848 | 32.69213 | 15594 ft | 379 kts | 211° |
| 2026-05-04 20:50 | 36.54511 | 32.67734 | 14997 ft | 376 kts | 211° |
| 2026-05-04 20:50 | 36.52287 | 32.66063 | 14397 ft | 370 kts | 220° |
| 2026-05-04 20:50 | 36.50513 | 32.63879 | 13823 ft | 360 kts | 237° |
| 2026-05-04 20:51 | 36.49416 | 32.61138 | 13264 ft | 353 kts | 252° |
| 2026-05-04 20:51 | 36.48633 | 32.58234 | 12676 ft | 350 kts | 255° |
| 2026-05-04 20:51 | 36.47912 | 32.55416 | 12122 ft | 347 kts | 255° |
| 2026-05-04 20:51 | 36.47173 | 32.52568 | 11569 ft | 345 kts | 254° |
| 2026-05-04 20:52 | 36.46428 | 32.49767 | 11002 ft | 343 kts | 254° |
| 2026-05-04 20:52 | 36.45675 | 32.46994 | 10553 ft | 338 kts | 254° |
| 2026-05-04 20:52 | 36.44931 | 32.44270 | 10348 ft | 326 kts | 254° |
| 2026-05-04 20:52 | 36.44221 | 32.41670 | 10244 ft | 312 kts | 254° |
| 2026-05-04 20:53 | 36.43538 | 32.39181 | 10151 ft | 299 kts | 254° |
| 2026-05-04 20:53 | 36.42877 | 32.36788 | 9976 ft | 285 kts | 254° |
| 2026-05-04 20:53 | 36.42253 | 32.34516 | 9634 ft | 278 kts | 253° |
| 2026-05-04 20:53 | 36.41638 | 32.32267 | 9279 ft | 272 kts | 254° |
| 2026-05-04 20:54 | 36.41035 | 32.30082 | 8953 ft | 266 kts | 253° |
| 2026-05-04 20:54 | 36.40435 | 32.27918 | 8613 ft | 261 kts | 253° |
| 2026-05-04 20:54 | 36.39854 | 32.25813 | 8288 ft | 257 kts | 253° |
| 2026-05-04 20:54 | 36.39321 | 32.23664 | 8018 ft | 261 kts | 259° |
| 2026-05-04 20:55 | 36.38992 | 32.21477 | 7715 ft | 260 kts | 263° |
| 2026-05-04 20:55 | 36.38739 | 32.19226 | 7299 ft | 262 kts | 264° |
| 2026-05-04 20:55 | 36.38497 | 32.17004 | 6993 ft | 261 kts | 264° |
| 2026-05-04 20:55 | 36.38243 | 32.14778 | 6634 ft | 262 kts | 263° |
| 2026-05-04 20:56 | 36.37980 | 32.12563 | 6364 ft | 258 kts | 262° |
| 2026-05-04 20:56 | 36.37715 | 32.10381 | 6041 ft | 258 kts | 263° |
| 2026-05-04 20:56 | 36.37396 | 32.08181 | 5706 ft | 259 kts | 257° |
| 2026-05-04 20:56 | 36.36655 | 32.06166 | 5361 ft | 261 kts | 232° |
| 2026-05-04 20:57 | 36.35223 | 32.04802 | 5048 ft | 262 kts | 204° |
| 2026-05-04 20:57 | 36.33487 | 32.04292 | 4903 ft | 255 kts | 185° |
| 2026-05-04 20:57 | 36.31749 | 32.04337 | 4811 ft | 242 kts | 173° |
| 2026-05-04 20:57 | 36.30102 | 32.04678 | 4608 ft | 239 kts | 165° |
| 2026-05-04 20:58 | 36.28597 | 32.05537 | 4165 ft | 241 kts | 141° |
| 2026-05-04 20:58 | 36.27592 | 32.07134 | 3692 ft | 236 kts | 109° |
| 2026-05-04 20:58 | 36.27385 | 32.09091 | 3234 ft | 231 kts | 84° |
| 2026-05-04 20:58 | 36.27605 | 32.11050 | 2863 ft | 224 kts | 77° |
| 2026-05-04 20:59 | 36.27872 | 32.12906 | 2598 ft | 215 kts | 78° |
| 2026-05-04 20:59 | 36.28085 | 32.14673 | 2516 ft | 200 kts | 78° |
| 2026-05-04 20:59 | 36.28277 | 32.16300 | 2386 ft | 179 kts | 77° |
| 2026-05-04 20:59 | 36.28451 | 32.17744 | 2155 ft | 165 kts | 77° |
| 2026-05-04 21:00 | 36.28617 | 32.19113 | 1899 ft | 154 kts | 77° |
| 2026-05-04 21:00 | 36.28766 | 32.20377 | 1694 ft | 142 kts | 77° |
| 2026-05-04 21:00 | 36.28913 | 32.21585 | 1566 ft | 138 kts | 77° |
| 2026-05-04 21:00 | 36.29056 | 32.22765 | 1497 ft | 141 kts | 78° |
| 2026-05-04 21:01 | 36.29204 | 32.23989 | 1092 ft | 146 kts | 79° |
| 2026-05-04 21:01 | 36.29358 | 32.25191 | 759 ft | 140 kts | 81° |
| 2026-05-04 21:01 | 36.29488 | 32.26376 | 501 ft | 135 kts | 79° |
| 2026-05-04 21:01 | 36.29629 | 32.27484 | 331 ft | 129 kts | 82° |
| 2026-05-04 21:02 | 36.29758 | 32.28605 | 124 ft | 133 kts | 83° |
| 2026-05-04 21:02 | 36.29887 | 32.29653 | 104 ft | 103 kts | 85° |
| 2026-05-04 21:02 | 36.29948 | 32.30219 | 104 ft | 29 kts | 82° |
| 2026-05-04 21:02 | 36.29947 | 32.30295 | 103 ft | 3 kts | 335° |
| 2026-05-04 21:03 | 36.29948 | 32.30209 | 104 ft | 17 kts | 263° |
| 2026-05-04 21:03 | 36.29925 | 32.30155 | 103 ft | 4 kts | 195° |
| 2026-05-04 21:03 | 36.29895 | 32.30157 | 104 ft | 4 kts | 175° |
| 2026-05-04 21:03 | 36.29866 | 32.30161 | 104 ft | 4 kts | 173° |
| 2026-05-04 21:04 | 36.29837 | 32.30238 | 104 ft | 20 kts | 82° |
| 2026-05-04 21:04 | 36.29819 | 32.30292 | 103 ft | 8 kts | 163° |
| 2026-05-04 21:04 | 36.29798 | 32.30296 | 102 ft | 0 kts | 172° |